Sevierville, TN

11:09 AM EDT on July 24, 2017 (GMT -0400)
Murphy Rd | | Change Station

Elev 958 ft 35.85 °N, 83.57 °W | Updated 34 seconds ago

Partly Cloudy
Partly Cloudy
78.4 °F
Feels Like 81 °F
N
0.0
Wind Variable Wind from East

Today
High -- | Low -- °F
--% Chance of Precip.
Yesterday
High -- | Low -- °F
Precip. -- in
Pressure 29.96 in
Visibility 10.0 miles
Clouds Few 1300 ft
Mostly Cloudy 2100 ft
Mostly Cloudy 25000 ft
Heat Index 81 °F
Dew Point 71 °F
Humidity 80%
Rainfall 0.00 in
Snow Depth Not available.
6:36 AM 8:45 PM
New Moon, 2% visible
METAR KTYS 241453Z VRB04KT 10SM FEW013 BKN021 BKN250 26/21 A3000 RMK AO2 SLP144 T02610211 51012
Pressure 29.96 in
Visibility 10.0 miles
Clouds Few 1300 ft
Mostly Cloudy 2100 ft
Mostly Cloudy 25000 ft
Heat Index 81 °F
Dew Point 71 °F
Humidity 80%
Rainfall 0.00 in
Snow Depth Not available.
6:36 AM 8:45 PM
New Moon, 2% visible
METAR KTYS 241453Z VRB04KT 10SM FEW013 BKN021 BKN250 26/21 A3000 RMK AO2 SLP144 T02610211 51012

Get Severe Weather Alerts

Thanks for signing up!

Be on the lookout for a verification email in your inbox.

You'll start receiving the daily forecast at 6 AM.

×

10-Day Weather Forecast

Almanac

Astronomy

Jul. 24, 2017 Rise Set
Actual Time
Civil Twilight
Nautical Twilight
Astronomical Twilight
Moon
Length of Visible Light
Length of Day
Tomorrow will be .
, % of the Moon is Illuminated

Today's Extremes

State Highs State Lows

Community

WunderPhotos

Category 6

Welcome to Category 6. This is the collective home for Weather Underground's featured writeups by Dr. Jeff Masters (right), Bob Henson (left), Chris Burt, and other regular contributors.

Nearby

Air Quality

  Air Quality AQ Index Pollutant
Not available.

Snow Depth

Station Depth Elevation

Earthquake Activity

City Distance Mag. Time & Date
Minimum magnitude displayed is 2.5.

Coastal Water Temperatures

Place Temperature

Stations

Nearby Weather Stations

Station Location Temp. Windchill Dew Point Humidity Wind Precip. Elev Updated Type
                   

Watches & Warnings

There are currently no watches in effect.